Pos Yokohama — DSOU4 — position and weather

sailwx.info

Track history (hours):
 
Tides and Currents Weather Stations Pressure Air Temp Water Temp Dewpoint Dewpoint Depression Visibility Wind Speed Wind Dir Waves Ship Positions

Pos Yokohama

Last reported at 2017-Nov-30 00:11 UTC. Time now 2017-Dec-12 19:34 UTC.
Position N 31°01' E 122°26'.
Warning: this ship's position is 12 days out of date.

Length 144 m; draft 6.3 m.

Type: Cargo ship. MMSI: 440349000.

Date/timePositionNaut miles runAvg speedWind from/ knotsBaromVisibWave heightAir tempDewpointWater temp
2017-Nov-30 00:11N 31°01' E 122°26'313.6
2017-Nov-29 23:56N 31°01' E 122°22'613.6
2017-Nov-29 23:30N 31°02' E 122°16'611.9
2017-Nov-29 23:00N 31°03' E 122°09'4 8.6
2017-Nov-29 22:30N 31°04' E 122°04'2 4.6
2017-Nov-29 22:00N 31°05' E 122°01'4 8.6
2017-Nov-29 21:30N 31°07' E 121°57'612.9
2017-Nov-29 21:00N 31°11' E 121°51'612.7
2017-Nov-29 20:30N 31°15' E 121°46'1 1.6
2017-Nov-29 19:38N 31°17' E 121°45'0 0.0
2017-Nov-29 19:20N 31°17' E 121°45'0 0.0
2017-Nov-29 18:56N 31°17' E 121°45'0 0.0
2017-Nov-29 18:26N 31°17' E 121°45'0 0.0
2017-Nov-29 17:56N 31°17' E 121°45'0 0.1
2017-Nov-29 17:27N 31°17' E 121°45'5 0.5
2017-Nov-29 07:15N 31°20' E 121°40'1 2.5
2017-Nov-29 06:55N 31°19' E 121°41'3 7.3
2017-Nov-29 06:29N 31°19' E 121°45'712.2
2017-Nov-29 05:56N 31°16' E 121°52'912.4
2017-Nov-29 05:14N 31°14' E 122°02'1112.2
2017-Nov-29 04:21N 31°09' E 122°13'  
2017-Nov-23 06:29N 31°10' E 122°33'612.1
2017-Nov-23 06:00N 31°08' E 122°27'1 2.5
2017-Nov-23 05:28N 31°09' E 122°27'3 1.2
2017-Nov-23 03:13N 31°11' E 122°29'0 0.0
2017-Nov-23 02:55N 31°11' E 122°29'0 0.0
2017-Nov-23 01:31N 31°11' E 122°29'0 0.0
2017-Nov-23 00:22N 31°11' E 122°29'0 0.1
2017-Nov-22 23:58N 31°11' E 122°29'0 0.0
2017-Nov-22 23:28N 31°11' E 122°29'0 0.0
2017-Nov-22 22:58N 31°11' E 122°29'0 0.0
2017-Nov-22 21:52N 31°11' E 122°29'0 0.0
2017-Nov-22 21:22N 31°11' E 122°29'0 0.0
2017-Nov-22 20:55N 31°11' E 122°29'0 0.0
2017-Nov-22 20:28N 31°11' E 122°29'0 0.0
2017-Nov-22 19:13N 31°11' E 122°29'  
Track history (hours):
 
Tides and Currents Weather Stations Pressure Air Temp Water Temp Dewpoint Dewpoint Depression Visibility Wind Speed Wind Dir Waves Ship Positions

Pos Yokohama

Last reported at 2017-Nov-30 00:11 UTC. Time now 2017-Dec-12 19:34 UTC.
Position N 31°01' E 122°26'.
Warning: this ship's position is 12 days out of date.

Length 144 m; draft 6.3 m.

Type: Cargo ship. MMSI: 440349000.

Date/timePositionNaut miles runAvg speedWind from/ knotsBaromVisibWave heightAir tempDewpointWater temp
2017-Nov-30 00:11N 31°01' E 122°26'313.6
2017-Nov-29 23:56N 31°01' E 122°22'613.6
2017-Nov-29 23:30N 31°02' E 122°16'611.9
2017-Nov-29 23:00N 31°03' E 122°09'4 8.6
2017-Nov-29 22:30N 31°04' E 122°04'2 4.6
2017-Nov-29 22:00N 31°05' E 122°01'4 8.6
2017-Nov-29 21:30N 31°07' E 121°57'612.9
2017-Nov-29 21:00N 31°11' E 121°51'612.7
2017-Nov-29 20:30N 31°15' E 121°46'1 1.6
2017-Nov-29 19:38N 31°17' E 121°45'0 0.0
2017-Nov-29 19:20N 31°17' E 121°45'0 0.0
2017-Nov-29 18:56N 31°17' E 121°45'0 0.0
2017-Nov-29 18:26N 31°17' E 121°45'0 0.0
2017-Nov-29 17:56N 31°17' E 121°45'0 0.1
2017-Nov-29 17:27N 31°17' E 121°45'5 0.5
2017-Nov-29 07:15N 31°20' E 121°40'1 2.5
2017-Nov-29 06:55N 31°19' E 121°41'3 7.3
2017-Nov-29 06:29N 31°19' E 121°45'712.2
2017-Nov-29 05:56N 31°16' E 121°52'912.4
2017-Nov-29 05:14N 31°14' E 122°02'1112.2
2017-Nov-29 04:21N 31°09' E 122°13'  
2017-Nov-23 06:29N 31°10' E 122°33'612.1
2017-Nov-23 06:00N 31°08' E 122°27'1 2.5
2017-Nov-23 05:28N 31°09' E 122°27'3 1.2
2017-Nov-23 03:13N 31°11' E 122°29'0 0.0
2017-Nov-23 02:55N 31°11' E 122°29'0 0.0
2017-Nov-23 01:31N 31°11' E 122°29'0 0.0
2017-Nov-23 00:22N 31°11' E 122°29'0 0.1
2017-Nov-22 23:58N 31°11' E 122°29'0 0.0
2017-Nov-22 23:28N 31°11' E 122°29'0 0.0
2017-Nov-22 22:58N 31°11' E 122°29'0 0.0
2017-Nov-22 21:52N 31°11' E 122°29'0 0.0
2017-Nov-22 21:22N 31°11' E 122°29'0 0.0
2017-Nov-22 20:55N 31°11' E 122°29'0 0.0
2017-Nov-22 20:28N 31°11' E 122°29'0 0.0
2017-Nov-22 19:13N 31°11' E 122°29'  

Dump ship's entire track history